createdAt,value
2022-08-05T00:00:20.304Z,59.43
2022-08-05T00:02:50.685Z,59.46
2022-08-05T00:06:02.817Z,60.09
2022-08-05T00:08:32.541Z,60.41
2022-08-05T00:11:01.421Z,60.90
2022-08-05T00:13:38.763Z,61.74
2022-08-05T00:16:12.982Z,61.74
2022-08-05T00:18:44.234Z,61.72
2022-08-05T00:21:14.500Z,61.40
2022-08-05T00:23:46.196Z,61.59
2022-08-05T00:26:21.983Z,61.67
2022-08-05T00:28:51.007Z,61.87
2022-08-05T00:31:53.696Z,61.68
2022-08-05T00:34:54.613Z,61.54
2022-08-05T00:39:58.002Z,62.23
2022-08-05T00:42:37.685Z,62.51
2022-08-05T00:45:08.532Z,62.39
2022-08-05T00:47:52.996Z,62.19
2022-08-05T00:50:25.396Z,62.46
2022-08-05T00:52:55.024Z,62.30
2022-08-05T00:55:23.067Z,62.54
2022-08-05T00:58:01.605Z,63.00
2022-08-05T01:00:32.138Z,63.52
2022-08-05T01:03:00.889Z,63.28
2022-08-05T01:05:28.462Z,63.17
2022-08-05T01:08:41.128Z,62.59
2022-08-05T01:11:10.241Z,62.26
2022-08-05T01:13:59.045Z,62.17
2022-08-05T01:16:37.683Z,62.25
2022-08-05T01:19:46.297Z,62.68
2022-08-05T01:22:32.146Z,62.33
2022-08-05T01:25:22.988Z,62.45
2022-08-05T01:28:06.018Z,62.16
2022-08-05T01:30:40.126Z,62.36
2022-08-05T01:33:25.346Z,61.85
2022-08-05T01:35:57.446Z,62.04
2022-08-05T01:38:29.919Z,62.14
2022-08-05T01:41:02.503Z,62.04
2022-08-05T01:43:30.834Z,62.58
2022-08-05T01:46:07.388Z,62.58
2022-08-05T01:48:49.548Z,62.67
2022-08-05T01:51:18.990Z,62.74
2022-08-05T01:53:57.121Z,62.51
2022-08-05T01:58:10.131Z,62.04
2022-08-05T01:59:26.903Z,62.06
2022-08-05T02:01:56.320Z,62.14
2022-08-05T02:04:28.198Z,61.94
2022-08-05T02:06:59.200Z,62.40
2022-08-05T02:09:27.260Z,63.31
2022-08-05T02:12:17.839Z,63.49
2022-08-05T02:14:53.381Z,64.04
2022-08-05T02:18:28.825Z,64.72
2022-08-05T02:20:25.187Z,64.71
2022-08-05T02:23:00.330Z,65.00
2022-08-05T02:25:49.302Z,65.02
2022-08-05T02:28:29.228Z,64.81
2022-08-05T02:35:27.667Z,65.73
2022-08-05T02:38:00.082Z,65.76
2022-08-05T02:40:27.868Z,65.43
2022-08-05T02:42:57.041Z,66.04
2022-08-05T02:45:27.181Z,66.11
2022-08-05T02:48:06.505Z,66.48
2022-08-05T02:50:38.737Z,65.65
2022-08-05T02:53:19.106Z,66.19
2022-08-05T02:55:55.290Z,66.40
2022-08-05T02:58:28.859Z,65.96
2022-08-05T03:01:01.866Z,65.41
2022-08-05T03:03:34.360Z,65.95
2022-08-05T03:06:53.999Z,66.06
2022-08-05T03:09:07.718Z,66.53
2022-08-05T03:11:55.142Z,66.66
2022-08-05T03:14:22.369Z,66.77
2022-08-05T03:16:49.858Z,67.06
2022-08-05T03:19:32.981Z,67.14
2022-08-05T03:22:00.785Z,66.97
2022-08-05T03:24:30.820Z,67.46
2022-08-05T03:26:59.256Z,67.62
2022-08-05T03:29:45.635Z,67.69
2022-08-05T03:32:15.947Z,67.78
2022-08-05T03:34:51.346Z,67.88
2022-08-05T03:37:21.342Z,67.98
2022-08-05T03:39:59.130Z,68.06
2022-08-05T03:42:32.805Z,68.10
2022-08-05T03:45:01.624Z,67.77
2022-08-05T03:47:35.415Z,67.83
2022-08-05T03:50:08.625Z,67.75
2022-08-05T03:55:54.083Z,67.82
2022-08-05T03:56:42.324Z,67.07
2022-08-05T03:59:47.240Z,66.79
2022-08-05T04:02:38.391Z,66.80
2022-08-05T04:15:40.064Z,65.81
2022-08-05T04:18:27.444Z,64.21
2022-08-05T04:20:58.781Z,64.22
2022-08-05T04:24:05.977Z,63.46
2022-08-05T04:26:20.965Z,62.41
2022-08-05T04:28:51.015Z,62.26
2022-08-05T04:31:20.072Z,61.41
2022-08-05T04:34:18.208Z,61.07
2022-08-05T04:36:49.512Z,60.56
2022-08-05T04:39:18.814Z,59.92
2022-08-05T04:41:48.247Z,59.53
2022-08-05T04:44:21.532Z,58.68
2022-08-05T04:47:08.961Z,57.84
2022-08-05T04:49:38.850Z,57.21
2022-08-05T04:52:27.666Z,56.98
2022-08-05T04:54:57.189Z,56.49
2022-08-05T04:57:28.593Z,56.00
2022-08-05T04:59:58.724Z,55.03
2022-08-05T05:02:37.470Z,54.49
2022-08-05T05:05:26.564Z,53.95
2022-08-05T05:08:01.848Z,53.87
2022-08-05T05:10:31.024Z,53.55
2022-08-05T05:13:01.653Z,52.42
2022-08-05T05:15:57.320Z,50.70
2022-08-05T05:18:30.967Z,50.04
2022-08-05T05:21:00.676Z,48.97
2022-08-05T05:23:39.220Z,49.03
2022-08-05T05:26:15.297Z,48.97
2022-08-05T05:28:42.826Z,47.04
2022-08-05T05:31:12.356Z,45.47
2022-08-05T05:33:58.847Z,44.03
2022-08-05T05:36:28.518Z,43.65
2022-08-05T05:38:57.424Z,43.01
2022-08-05T05:41:24.975Z,42.26
2022-08-05T05:43:57.906Z,40.94
2022-08-05T05:46:27.677Z,39.32
2022-08-05T05:48:55.082Z,38.90
2022-08-05T05:51:24.155Z,39.07
2022-08-05T05:53:57.211Z,37.89
2022-08-05T05:56:33.021Z,38.23
2022-08-05T05:59:07.519Z,38.85
2022-08-05T06:01:38.954Z,38.01
2022-08-05T06:04:11.852Z,36.81
2022-08-05T06:06:47.627Z,36.99
2022-08-05T06:09:25.934Z,36.56
2022-08-05T06:12:04.309Z,34.91
2022-08-05T06:14:32.335Z,34.33
2022-08-05T06:17:01.880Z,34.11
2022-08-05T06:19:33.966Z,33.29
2022-08-05T06:22:03.938Z,31.84
2022-08-05T06:24:31.985Z,31.83
2022-08-05T06:26:59.065Z,31.70
2022-08-05T06:29:52.107Z,30.98
2022-08-05T06:32:24.890Z,30.13
2022-08-05T06:34:57.920Z,30.80
2022-08-05T06:37:57.020Z,31.19
2022-08-05T06:40:18.512Z,31.41
2022-08-05T06:42:52.825Z,30.96
2022-08-05T06:45:44.404Z,31.30
2022-08-05T06:48:47.023Z,30.06
2022-08-05T06:50:56.998Z,30.13
2022-08-05T06:53:28.384Z,29.67
2022-08-05T06:56:00.440Z,29.16
2022-08-05T06:58:35.323Z,28.07
2022-08-05T07:01:06.324Z,28.64
2022-08-05T07:03:35.054Z,28.17
2022-08-05T07:18:01.319Z,24.59
2022-08-05T07:19:04.888Z,25.14
2022-08-05T07:21:59.562Z,24.70
2022-08-05T07:24:22.283Z,25.11
2022-08-05T07:26:49.476Z,24.58
2022-08-05T07:29:17.030Z,23.88
2022-08-05T07:31:54.737Z,23.93
2022-08-05T07:34:26.249Z,23.34
2022-08-05T07:36:55.739Z,23.90
2022-08-05T07:39:24.628Z,24.90
2022-08-05T07:42:14.131Z,24.46
2022-08-05T07:44:42.904Z,23.73
2022-08-05T07:47:14.787Z,23.03
2022-08-05T07:49:43.637Z,22.38
2022-08-05T07:52:23.949Z,22.18
2022-08-05T07:54:53.403Z,21.94
2022-08-05T07:57:51.346Z,22.96
2022-08-05T08:00:11.403Z,23.34
2022-08-05T08:03:14.511Z,22.69
2022-08-05T08:05:29.049Z,23.06
2022-08-05T08:08:00.274Z,22.89
2022-08-05T08:10:28.681Z,22.54
2022-08-05T08:12:58.576Z,22.21
2022-08-05T08:15:37.304Z,22.58
2022-08-05T08:18:14.089Z,22.35
2022-08-05T08:20:44.242Z,22.17
2022-08-05T08:24:02.727Z,22.17
2022-08-05T08:26:02.777Z,21.91
2022-08-05T08:28:36.050Z,21.72
2022-08-05T08:31:07.886Z,21.75
2022-08-05T08:33:37.438Z,21.38
2022-08-05T08:38:56.930Z,22.26
2022-08-05T08:41:51.225Z,22.81
2022-08-05T08:45:18.248Z,23.02
2022-08-05T08:47:46.853Z,23.60
2022-08-05T08:50:22.856Z,23.01
2022-08-05T08:52:54.249Z,23.86
2022-08-05T08:55:31.982Z,24.75
2022-08-05T08:58:13.028Z,24.95
2022-08-05T09:00:42.579Z,24.58
2022-08-05T09:03:11.388Z,24.26
2022-08-05T09:06:07.539Z,24.57
2022-08-05T09:08:26.580Z,23.60
2022-08-05T09:10:54.840Z,22.99
2022-08-05T09:13:23.492Z,22.74
2022-08-05T09:15:51.863Z,23.19
2022-08-05T09:18:18.993Z,23.67
2022-08-05T09:20:47.243Z,23.14
2022-08-05T09:23:21.970Z,23.19
2022-08-05T09:26:03.111Z,22.64
2022-08-05T09:28:33.797Z,22.47
2022-08-05T09:31:23.483Z,22.11
2022-08-05T09:33:58.761Z,21.99
2022-08-05T09:36:54.449Z,21.81
2022-08-05T09:39:41.917Z,21.48
2022-08-05T09:42:17.290Z,20.92
2022-08-05T09:44:56.790Z,21.11
2022-08-05T09:47:34.907Z,21.57
2022-08-05T09:50:18.043Z,22.44
2022-08-05T09:53:01.793Z,22.16
2022-08-05T09:55:57.261Z,21.66
2022-08-05T09:58:24.116Z,20.73
2022-08-05T10:00:54.146Z,20.39
2022-08-05T10:03:21.610Z,21.43
2022-08-05T10:06:07.821Z,21.18
2022-08-05T10:08:50.212Z,20.91
2022-08-05T10:11:21.105Z,21.21
2022-08-05T10:13:49.215Z,20.94
2022-08-05T10:16:41.825Z,22.25
2022-08-05T10:19:23.723Z,21.91
2022-08-05T10:22:15.801Z,21.58
2022-08-05T10:24:57.995Z,20.70
2022-08-05T10:28:09.153Z,20.58
2022-08-05T10:31:19.977Z,19.84
2022-08-05T10:33:02.574Z,19.20
2022-08-05T10:35:33.759Z,19.29
2022-08-05T10:38:08.612Z,19.27
2022-08-05T10:40:58.184Z,19.68
2022-08-05T10:43:53.377Z,19.28
2022-08-05T10:46:24.056Z,19.35
2022-08-05T10:49:02.764Z,18.50
2022-08-05T10:51:59.571Z,17.76
2022-08-05T10:54:56.190Z,17.21
2022-08-05T10:57:31.836Z,18.08
2022-08-05T11:00:20.862Z,17.61
2022-08-05T11:02:59.246Z,16.91
2022-08-05T11:06:08.348Z,17.05
2022-08-05T11:09:39.360Z,16.47
2022-08-05T11:12:41.214Z,15.44
2022-08-05T11:16:01.278Z,15.50
2022-08-05T11:18:26.384Z,15.88
2022-08-05T11:20:54.214Z,15.75
2022-08-05T11:23:33.712Z,16.19
2022-08-05T11:26:28.751Z,15.69
2022-08-05T11:29:12.788Z,15.09
2022-08-05T11:31:54.193Z,15.06
2022-08-05T11:34:37.830Z,14.71
2022-08-05T11:37:06.119Z,15.18
2022-08-05T11:40:00.779Z,15.41
2022-08-05T11:42:38.040Z,14.99
2022-08-05T11:45:23.438Z,14.36
2022-08-05T11:47:56.054Z,14.50
2022-08-05T11:50:25.127Z,14.30
2022-08-05T11:52:57.663Z,14.20
2022-08-05T11:55:32.194Z,14.27
2022-08-05T11:58:09.941Z,14.52
2022-08-05T12:00:40.473Z,14.34
2022-08-05T12:03:29.461Z,14.54
2022-08-05T12:06:09.679Z,14.02
2022-08-05T12:08:57.590Z,13.44
2022-08-05T12:11:39.797Z,13.40
2022-08-05T12:14:08.775Z,13.78
2022-08-05T12:16:40.539Z,15.32
2022-08-05T12:20:25.800Z,17.59
2022-08-05T12:22:01.703Z,17.21
2022-08-05T12:24:28.731Z,16.52
2022-08-05T12:26:57.709Z,15.80
2022-08-05T12:29:26.683Z,15.17
2022-08-05T12:31:55.291Z,15.24
2022-08-05T12:34:25.751Z,14.85
2022-08-05T12:36:54.682Z,15.09
2022-08-05T12:39:34.252Z,16.11
2022-08-05T12:42:03.091Z,15.67
2022-08-05T12:44:33.606Z,15.29
2022-08-05T12:47:02.304Z,14.40
2022-08-05T12:50:04.221Z,13.74
2022-08-05T12:52:42.712Z,13.65
2022-08-05T12:55:23.302Z,13.87
2022-08-05T12:58:38.175Z,13.38
2022-08-05T13:02:01.083Z,14.03
2022-08-05T13:03:41.413Z,14.71
2022-08-05T13:06:52.043Z,15.66
2022-08-05T13:09:28.030Z,16.44
2022-08-05T13:12:13.214Z,15.42
2022-08-05T13:14:48.025Z,15.31
2022-08-05T13:17:41.300Z,14.63
2022-08-05T13:20:12.178Z,14.54
2022-08-05T13:22:43.422Z,14.39
2022-08-05T13:25:19.519Z,14.58
2022-08-05T13:27:50.626Z,14.31
2022-08-05T13:30:33.862Z,14.95
2022-08-05T13:33:03.323Z,15.38
2022-08-05T13:35:47.544Z,16.19
2022-08-05T13:38:28.182Z,15.99
2022-08-05T13:40:59.889Z,16.07
2022-08-05T13:43:45.582Z,16.88
2022-08-05T13:46:16.321Z,16.94
2022-08-05T13:49:00.962Z,17.58
2022-08-05T13:51:40.456Z,17.75
2022-08-05T13:54:11.761Z,16.36
2022-08-05T13:56:45.137Z,16.31
2022-08-05T13:59:24.207Z,16.56
2022-08-05T14:01:56.815Z,16.32
2022-08-05T14:04:49.422Z,16.50
2022-08-05T14:07:55.705Z,16.54
2022-08-05T14:10:19.065Z,17.58
2022-08-05T14:12:55.191Z,18.14
2022-08-05T14:16:08.517Z,18.58
2022-08-05T14:18:15.142Z,18.64
2022-08-05T14:20:48.148Z,18.16
2022-08-05T14:23:25.145Z,17.73
2022-08-05T14:25:58.773Z,17.95
2022-08-05T14:28:28.909Z,18.58
2022-08-05T14:30:57.406Z,18.46
2022-08-05T14:33:24.651Z,18.41
2022-08-05T14:35:54.057Z,18.34
2022-08-05T14:38:31.808Z,18.74
2022-08-05T14:41:06.712Z,19.31
2022-08-05T14:44:01.781Z,20.56
2022-08-05T14:46:28.051Z,22.31
2022-08-05T14:48:59.550Z,23.28
2022-08-05T14:51:31.270Z,24.18
2022-08-05T14:54:26.351Z,25.57
2022-08-05T14:56:47.318Z,25.47
2022-08-05T14:59:15.436Z,26.23
2022-08-05T15:01:48.683Z,26.62
2022-08-05T15:04:20.459Z,27.45
2022-08-05T15:06:49.771Z,27.49
2022-08-05T15:09:52.140Z,27.34
2022-08-05T15:12:06.876Z,27.92
2022-08-05T15:14:48.328Z,28.48
2022-08-05T15:17:46.896Z,28.79
2022-08-05T15:20:07.535Z,28.63
2022-08-05T15:22:37.866Z,28.72
2022-08-05T15:25:11.648Z,29.15
2022-08-05T15:27:42.765Z,29.45
2022-08-05T15:30:14.389Z,29.63
2022-08-05T15:32:43.536Z,29.50
2022-08-05T15:35:12.590Z,29.38
2022-08-05T15:38:33.752Z,29.59
2022-08-05T15:41:00.212Z,29.65
2022-08-05T15:43:20.416Z,29.45
2022-08-05T15:46:00.733Z,29.54
2022-08-05T15:48:30.125Z,30.13
2022-08-05T15:51:01.043Z,30.34
2022-08-05T15:53:38.515Z,30.25
2022-08-05T15:56:19.632Z,30.15
2022-08-05T15:58:47.815Z,30.70
2022-08-05T16:01:17.683Z,30.79
2022-08-05T16:03:50.423Z,30.58
2022-08-05T16:06:20.345Z,31.42
2022-08-05T16:08:50.258Z,30.88
2022-08-05T16:11:21.090Z,31.42
2022-08-05T16:14:05.994Z,32.07
2022-08-05T16:16:35.320Z,31.33
2022-08-05T16:19:03.669Z,31.42
2022-08-05T16:22:01.083Z,31.48
2022-08-05T16:24:40.650Z,31.58
2022-08-05T16:27:07.392Z,31.54
2022-08-05T16:29:37.311Z,31.79
2022-08-05T16:32:09.705Z,31.05
2022-08-05T16:34:39.237Z,31.40
2022-08-05T16:37:15.422Z,32.30
2022-08-05T16:40:05.735Z,32.48
2022-08-05T16:42:35.777Z,32.49
2022-08-05T16:46:02.894Z,32.74
2022-08-05T16:47:53.603Z,33.30
2022-08-05T16:50:24.486Z,33.84
2022-08-05T16:52:51.596Z,35.08
2022-08-05T16:55:20.396Z,35.25
2022-08-05T16:58:00.128Z,35.10
2022-08-05T17:00:34.340Z,35.03
2022-08-05T17:03:03.784Z,35.29
2022-08-05T17:05:37.608Z,35.45
2022-08-05T17:08:05.167Z,35.87
2022-08-05T17:10:34.968Z,35.99
2022-08-05T17:13:04.798Z,36.42
2022-08-05T17:15:48.444Z,35.93
2022-08-05T17:18:17.131Z,35.36
2022-08-05T17:20:46.137Z,33.69
2022-08-05T17:24:04.595Z,36.77
2022-08-05T17:26:00.396Z,35.79
2022-08-05T17:28:29.492Z,34.71
2022-08-05T17:30:56.857Z,34.95
2022-08-05T17:33:25.643Z,34.52
2022-08-05T17:36:08.346Z,34.01
2022-08-05T17:38:39.875Z,35.47
2022-08-05T17:41:11.606Z,35.77
2022-08-05T17:43:55.858Z,34.47
2022-08-05T17:46:25.151Z,33.93
2022-08-05T17:48:52.426Z,33.46
2022-08-05T17:51:21.522Z,34.12
2022-08-05T17:53:50.934Z,32.97
2022-08-05T17:56:22.691Z,34.11
2022-08-05T17:58:51.162Z,34.08
2022-08-05T18:01:19.937Z,34.44
2022-08-05T18:03:59.368Z,34.75
2022-08-05T18:06:32.358Z,35.63
2022-08-05T18:08:59.677Z,35.17
2022-08-05T18:11:33.596Z,35.64
2022-08-05T18:14:07.537Z,36.73
2022-08-05T18:16:46.793Z,36.53
2022-08-05T18:19:18.742Z,36.52
2022-08-05T18:22:09.749Z,37.33
2022-08-05T18:24:39.526Z,37.14
2022-08-05T18:27:18.261Z,36.97
2022-08-05T18:29:51.916Z,37.34
2022-08-05T18:32:28.418Z,38.12
2022-08-05T18:34:57.946Z,39.34
2022-08-05T18:37:34.522Z,39.01
2022-08-05T18:40:34.397Z,39.27
2022-08-05T18:42:56.790Z,39.74
2022-08-05T18:45:24.929Z,40.38
2022-08-05T18:48:07.982Z,40.47
2022-08-05T18:50:57.214Z,39.93
2022-08-05T18:53:34.762Z,40.18
2022-08-05T18:56:12.619Z,40.18
2022-08-05T18:58:40.232Z,39.95
2022-08-05T19:01:10.277Z,40.03
2022-08-05T19:03:55.414Z,40.89
2022-08-05T19:06:37.176Z,39.82
2022-08-05T19:09:10.785Z,40.54
2022-08-05T19:12:00.376Z,39.86
2022-08-05T19:14:59.489Z,40.22
2022-08-05T19:17:12.927Z,40.17
2022-08-05T19:19:47.065Z,40.21
2022-08-05T19:22:17.184Z,40.53
2022-08-05T19:24:54.287Z,40.93
2022-08-05T19:27:30.123Z,40.18
2022-08-05T19:29:58.468Z,40.67
2022-08-05T19:32:26.104Z,41.02
2022-08-05T19:35:21.876Z,40.79
2022-08-05T19:38:10.643Z,40.72
2022-08-05T19:47:29.200Z,41.51
2022-08-05T19:50:01.199Z,41.50
2022-08-05T19:52:40.321Z,41.42
2022-08-05T19:56:13.768Z,41.30
2022-08-05T19:58:14.229Z,41.38
2022-08-05T20:00:42.852Z,41.57
2022-08-05T20:03:11.109Z,41.55
2022-08-05T20:05:43.403Z,42.23
2022-08-05T20:08:17.707Z,42.04
2022-08-05T20:10:45.002Z,42.34
2022-08-05T20:13:18.130Z,42.55
2022-08-05T20:15:57.874Z,42.79
2022-08-05T20:18:35.964Z,43.39
2022-08-05T20:21:06.788Z,43.54
2022-08-05T20:23:51.274Z,43.38
2022-08-05T20:26:22.055Z,43.25
2022-08-05T20:28:54.463Z,43.77
2022-08-05T20:31:37.670Z,43.13
2022-08-05T20:34:12.303Z,43.30
2022-08-05T20:36:43.006Z,43.43
2022-08-05T20:39:12.975Z,44.04
2022-08-05T20:41:43.988Z,44.33
2022-08-05T20:44:19.142Z,44.38
2022-08-05T20:46:59.257Z,44.03
2022-08-05T20:49:27.217Z,44.27
2022-08-05T20:51:57.392Z,44.31
2022-08-05T20:54:43.127Z,45.10
2022-08-05T20:57:42.541Z,44.67
2022-08-05T21:00:19.607Z,45.02
2022-08-05T21:02:56.107Z,44.75
2022-08-05T21:05:24.452Z,45.14
2022-08-05T21:07:52.153Z,45.38
2022-08-05T21:10:20.589Z,45.86
2022-08-05T21:13:08.742Z,46.04
2022-08-05T21:15:36.928Z,46.35
2022-08-05T21:18:04.298Z,46.19
2022-08-05T21:20:32.588Z,46.66
2022-08-05T21:23:00.885Z,46.66
2022-08-05T21:25:33.934Z,47.10
2022-08-05T21:28:03.292Z,47.40
2022-08-05T21:30:31.718Z,46.85
2022-08-05T21:33:01.812Z,47.62
2022-08-05T21:35:43.683Z,47.23
2022-08-05T21:38:19.332Z,47.75
2022-08-05T21:40:46.581Z,47.53
2022-08-05T21:43:17.649Z,47.58
2022-08-05T21:45:56.674Z,47.96
2022-08-05T21:48:28.140Z,47.83
2022-08-05T21:50:55.735Z,48.17
2022-08-05T21:53:27.322Z,47.42
2022-08-05T21:56:06.579Z,47.73
2022-08-05T21:58:57.001Z,47.71
2022-08-05T22:01:25.001Z,48.23
2022-08-05T22:03:53.667Z,48.47
2022-08-05T22:06:22.944Z,47.88
2022-08-05T22:09:02.446Z,47.92
2022-08-05T22:11:41.213Z,48.09
2022-08-05T22:14:33.303Z,47.97
2022-08-05T22:17:00.202Z,48.28
2022-08-05T22:20:00.103Z,48.44
2022-08-05T22:22:26.908Z,48.43
2022-08-05T22:25:21.873Z,48.91
2022-08-05T22:28:08.390Z,48.96
2022-08-05T22:30:44.025Z,49.31
2022-08-05T22:33:56.754Z,49.25
2022-08-05T22:36:10.110Z,49.51
2022-08-05T22:38:37.146Z,49.91
2022-08-05T22:41:09.624Z,49.73
2022-08-05T22:43:38.466Z,50.26
2022-08-05T22:46:13.192Z,50.28
2022-08-05T22:48:43.252Z,50.71
2022-08-05T22:51:16.023Z,51.08
2022-08-05T22:53:51.159Z,51.60
2022-08-05T22:56:30.381Z,51.97
2022-08-05T22:59:03.246Z,52.56
2022-08-05T23:02:04.782Z,51.91
2022-08-05T23:04:33.988Z,52.17
2022-08-05T23:07:01.352Z,52.53
2022-08-05T23:09:57.636Z,52.32
2022-08-05T23:12:18.013Z,52.11
2022-08-05T23:14:45.376Z,52.17
2022-08-05T23:17:34.918Z,52.16
2022-08-05T23:20:17.686Z,52.01
2022-08-05T23:22:47.458Z,51.64
2022-08-05T23:25:54.734Z,51.72
2022-08-05T23:28:07.616Z,51.90
2022-08-05T23:30:40.326Z,51.98
2022-08-05T23:33:16.163Z,52.46
2022-08-05T23:35:49.633Z,52.40
2022-08-05T23:38:17.044Z,52.49
2022-08-05T23:40:49.746Z,52.73
2022-08-05T23:43:25.090Z,52.71
2022-08-05T23:46:19.730Z,53.14
2022-08-05T23:49:00.658Z,53.11
2022-08-05T23:51:53.456Z,53.34
2022-08-05T23:54:30.467Z,53.51
2022-08-05T23:57:05.304Z,53.49
